sensor_id;sensor_type;location;lat;lon;timestamp;temperature;humidity
7447;DHT22;3765;47.962;7.952;2022-12-18T00:00:05;-3270.90;77.00
7447;DHT22;3765;47.962;7.952;2022-12-18T00:02:34;-3270.90;77.10
7447;DHT22;3765;47.962;7.952;2022-12-18T00:05:02;-3270.80;76.90
7447;DHT22;3765;47.962;7.952;2022-12-18T00:07:30;-3270.70;76.90
7447;DHT22;3765;47.962;7.952;2022-12-18T00:09:59;-3270.50;76.80
7447;DHT22;3765;47.962;7.952;2022-12-18T00:12:27;-3270.50;77.00
7447;DHT22;3765;47.962;7.952;2022-12-18T00:14:57;-3270.50;77.00
7447;DHT22;3765;47.962;7.952;2022-12-18T00:17:25;-3270.40;76.70
7447;DHT22;3765;47.962;7.952;2022-12-18T00:19:53;-3270.40;76.70
7447;DHT22;3765;47.962;7.952;2022-12-18T00:22:21;-3270.30;76.60
7447;DHT22;3765;47.962;7.952;2022-12-18T00:24:50;-3270.30;76.60
7447;DHT22;3765;47.962;7.952;2022-12-18T00:27:18;-3270.30;76.40
7447;DHT22;3765;47.962;7.952;2022-12-18T00:29:46;-3270.30;76.30
7447;DHT22;3765;47.962;7.952;2022-12-18T00:32:17;-3270.40;76.40
7447;DHT22;3765;47.962;7.952;2022-12-18T00:34:45;-3270.40;76.20
7447;DHT22;3765;47.962;7.952;2022-12-18T00:37:13;-3270.40;76.10
7447;DHT22;3765;47.962;7.952;2022-12-18T00:39:48;-3270.30;76.00
7447;DHT22;3765;47.962;7.952;2022-12-18T00:42:16;-3270.30;75.80
7447;DHT22;3765;47.962;7.952;2022-12-18T00:45:02;-3270.20;75.70
7447;DHT22;3765;47.962;7.952;2022-12-18T00:47:39;-3270.00;75.70
7447;DHT22;3765;47.962;7.952;2022-12-18T00:50:08;-3269.90;75.50
7447;DHT22;3765;47.962;7.952;2022-12-18T00:52:40;-3270.10;75.80
7447;DHT22;3765;47.962;7.952;2022-12-18T00:55:08;-3270.10;75.60
7447;DHT22;3765;47.962;7.952;2022-12-18T00:57:37;-3270.00;75.50
7447;DHT22;3765;47.962;7.952;2022-12-18T01:00:08;-3270.00;75.40
7447;DHT22;3765;47.962;7.952;2022-12-18T01:02:38;-3270.00;75.50
7447;DHT22;3765;47.962;7.952;2022-12-18T01:05:08;-3270.00;75.60
7447;DHT22;3765;47.962;7.952;2022-12-18T01:07:36;-3270.20;75.60
7447;DHT22;3765;47.962;7.952;2022-12-18T01:10:06;-3270.20;75.60
7447;DHT22;3765;47.962;7.952;2022-12-18T01:12:35;-3270.20;75.50
7447;DHT22;3765;47.962;7.952;2022-12-18T01:15:04;-3270.30;75.50
7447;DHT22;3765;47.962;7.952;2022-12-18T01:17:32;-3270.30;75.40
7447;DHT22;3765;47.962;7.952;2022-12-18T01:20:02;-3270.30;75.40
7447;DHT22;3765;47.962;7.952;2022-12-18T01:22:34;-3270.30;75.30
7447;DHT22;3765;47.962;7.952;2022-12-18T01:25:03;-3270.30;75.30
7447;DHT22;3765;47.962;7.952;2022-12-18T01:27:33;-3270.30;75.10
7447;DHT22;3765;47.962;7.952;2022-12-18T01:30:01;-3270.30;75.10
7447;DHT22;3765;47.962;7.952;2022-12-18T01:32:30;-3270.40;75.00
7447;DHT22;3765;47.962;7.952;2022-12-18T01:34:58;-3270.40;74.90
7447;DHT22;3765;47.962;7.952;2022-12-18T01:37:28;-3270.30;74.80
7447;DHT22;3765;47.962;7.952;2022-12-18T01:39:56;-3270.30;74.70
7447;DHT22;3765;47.962;7.952;2022-12-18T01:42:24;-3270.30;74.80
7447;DHT22;3765;47.962;7.952;2022-12-18T01:45:04;-3270.40;74.70
7447;DHT22;3765;47.962;7.952;2022-12-18T01:47:36;-3270.40;74.60
7447;DHT22;3765;47.962;7.952;2022-12-18T01:50:08;-3270.30;74.50
7447;DHT22;3765;47.962;7.952;2022-12-18T01:52:41;-3270.30;74.70
7447;DHT22;3765;47.962;7.952;2022-12-18T01:55:11;-3270.30;74.60
7447;DHT22;3765;47.962;7.952;2022-12-18T01:57:40;-3270.30;74.70
7447;DHT22;3765;47.962;7.952;2022-12-18T02:00:11;-3270.40;74.60
7447;DHT22;3765;47.962;7.952;2022-12-18T02:02:41;-3270.40;74.50
7447;DHT22;3765;47.962;7.952;2022-12-18T02:05:10;-3270.30;74.30
7447;DHT22;3765;47.962;7.952;2022-12-18T02:07:46;-3270.30;74.40
7447;DHT22;3765;47.962;7.952;2022-12-18T02:10:24;-3270.30;74.40
7447;DHT22;3765;47.962;7.952;2022-12-18T02:13:02;-3270.30;74.50
7447;DHT22;3765;47.962;7.952;2022-12-18T02:15:37;-3270.30;74.40
7447;DHT22;3765;47.962;7.952;2022-12-18T02:18:10;-3270.30;74.40
7447;DHT22;3765;47.962;7.952;2022-12-18T02:20:43;-3270.40;74.40
7447;DHT22;3765;47.962;7.952;2022-12-18T02:23:24;-3270.40;74.30
7447;DHT22;3765;47.962;7.952;2022-12-18T02:26:11;-3270.40;74.30
7447;DHT22;3765;47.962;7.952;2022-12-18T02:28:44;-3270.50;74.40
7447;DHT22;3765;47.962;7.952;2022-12-18T02:31:18;-3270.60;74.40
7447;DHT22;3765;47.962;7.952;2022-12-18T02:33:50;-3270.70;74.40
7447;DHT22;3765;47.962;7.952;2022-12-18T02:36:20;-3270.70;74.30
7447;DHT22;3765;47.962;7.952;2022-12-18T02:38:50;-3270.70;74.30
7447;DHT22;3765;47.962;7.952;2022-12-18T02:41:24;-3270.60;74.20
7447;DHT22;3765;47.962;7.952;2022-12-18T02:43:58;-3270.70;74.30
7447;DHT22;3765;47.962;7.952;2022-12-18T02:46:33;-3270.70;74.10
7447;DHT22;3765;47.962;7.952;2022-12-18T02:49:13;-3270.60;74.10
7447;DHT22;3765;47.962;7.952;2022-12-18T02:51:50;-3270.50;74.00
7447;DHT22;3765;47.962;7.952;2022-12-18T02:54:29;-3270.50;74.10
7447;DHT22;3765;47.962;7.952;2022-12-18T02:57:09;-3270.40;74.00
7447;DHT22;3765;47.962;7.952;2022-12-18T02:59:45;-3270.40;74.10
7447;DHT22;3765;47.962;7.952;2022-12-18T03:02:20;-3270.40;74.10
7447;DHT22;3765;47.962;7.952;2022-12-18T03:04:55;-3270.40;74.10
7447;DHT22;3765;47.962;7.952;2022-12-18T03:07:35;-3270.40;74.20
7447;DHT22;3765;47.962;7.952;2022-12-18T03:10:07;-3270.50;74.20
7447;DHT22;3765;47.962;7.952;2022-12-18T03:12:41;-3270.50;74.10
7447;DHT22;3765;47.962;7.952;2022-12-18T03:15:13;-3270.50;74.10
7447;DHT22;3765;47.962;7.952;2022-12-18T03:17:46;-3270.50;74.10
7447;DHT22;3765;47.962;7.952;2022-12-18T03:20:19;-3270.50;74.10
7447;DHT22;3765;47.962;7.952;2022-12-18T03:22:52;-3270.50;74.00
7447;DHT22;3765;47.962;7.952;2022-12-18T03:25:21;-3270.40;74.00
7447;DHT22;3765;47.962;7.952;2022-12-18T03:27:55;-3270.40;73.90
7447;DHT22;3765;47.962;7.952;2022-12-18T03:30:26;-3270.30;73.80
7447;DHT22;3765;47.962;7.952;2022-12-18T03:33:01;-3270.20;73.80
7447;DHT22;3765;47.962;7.952;2022-12-18T03:35:35;-3270.20;73.80
7447;DHT22;3765;47.962;7.952;2022-12-18T03:38:04;-3270.10;73.80
7447;DHT22;3765;47.962;7.952;2022-12-18T03:40:38;-3270.00;73.80
7447;DHT22;3765;47.962;7.952;2022-12-18T03:43:12;-3270.00;73.90
7447;DHT22;3765;47.962;7.952;2022-12-18T03:45:50;-3270.00;73.90
7447;DHT22;3765;47.962;7.952;2022-12-18T03:48:28;-3270.00;73.80
7447;DHT22;3765;47.962;7.952;2022-12-18T03:51:00;-3270.00;73.90
7447;DHT22;3765;47.962;7.952;2022-12-18T03:53:36;-3270.00;73.80
7447;DHT22;3765;47.962;7.952;2022-12-18T03:56:08;-3270.00;73.80
7447;DHT22;3765;47.962;7.952;2022-12-18T03:58:40;-3270.00;73.80
7447;DHT22;3765;47.962;7.952;2022-12-18T04:01:12;-3270.10;74.00
7447;DHT22;3765;47.962;7.952;2022-12-18T04:03:44;-3270.10;73.90
7447;DHT22;3765;47.962;7.952;2022-12-18T04:06:14;-3270.00;73.90
7447;DHT22;3765;47.962;7.952;2022-12-18T04:08:44;-3269.90;73.80
7447;DHT22;3765;47.962;7.952;2022-12-18T04:11:13;-3269.90;73.80
7447;DHT22;3765;47.962;7.952;2022-12-18T04:13:43;-3269.90;73.80
7447;DHT22;3765;47.962;7.952;2022-12-18T04:16:11;-3269.90;73.80
7447;DHT22;3765;47.962;7.952;2022-12-18T04:18:39;-3269.90;73.90
7447;DHT22;3765;47.962;7.952;2022-12-18T04:21:07;-3270.00;73.90
7447;DHT22;3765;47.962;7.952;2022-12-18T04:23:36;-3269.90;73.80
7447;DHT22;3765;47.962;7.952;2022-12-18T04:26:04;-3269.80;73.70
7447;DHT22;3765;47.962;7.952;2022-12-18T04:28:32;-3269.80;73.90
7447;DHT22;3765;47.962;7.952;2022-12-18T04:31:02;-3269.90;73.80
7447;DHT22;3765;47.962;7.952;2022-12-18T04:33:30;-3269.90;73.90
7447;DHT22;3765;47.962;7.952;2022-12-18T04:35:58;-3269.90;73.80
7447;DHT22;3765;47.962;7.952;2022-12-18T04:38:27;-3269.80;73.70
7447;DHT22;3765;47.962;7.952;2022-12-18T04:40:55;-3269.80;73.60
7447;DHT22;3765;47.962;7.952;2022-12-18T04:43:23;-3269.80;73.70
7447;DHT22;3765;47.962;7.952;2022-12-18T04:45:51;-3269.80;73.70
7447;DHT22;3765;47.962;7.952;2022-12-18T04:48:21;-3269.80;73.60
7447;DHT22;3765;47.962;7.952;2022-12-18T04:50:49;-3269.80;73.60
7447;DHT22;3765;47.962;7.952;2022-12-18T04:53:18;-3269.80;73.60
7447;DHT22;3765;47.962;7.952;2022-12-18T04:55:46;-3269.70;73.50
7447;DHT22;3765;47.962;7.952;2022-12-18T04:58:14;-3269.70;73.60
7447;DHT22;3765;47.962;7.952;2022-12-18T05:00:42;-3269.70;73.60
7447;DHT22;3765;47.962;7.952;2022-12-18T05:03:11;-3269.70;73.50
7447;DHT22;3765;47.962;7.952;2022-12-18T05:05:40;-3269.70;73.60
7447;DHT22;3765;47.962;7.952;2022-12-18T05:08:08;-3269.70;73.60
7447;DHT22;3765;47.962;7.952;2022-12-18T05:10:37;-3269.50;73.40
7447;DHT22;3765;47.962;7.952;2022-12-18T05:13:05;-3269.60;73.50
7447;DHT22;3765;47.962;7.952;2022-12-18T05:15:33;-3269.50;73.40
7447;DHT22;3765;47.962;7.952;2022-12-18T05:18:02;-3269.50;73.50
7447;DHT22;3765;47.962;7.952;2022-12-18T05:20:31;-3269.50;73.70
7447;DHT22;3765;47.962;7.952;2022-12-18T05:23:00;-3269.50;73.60
7447;DHT22;3765;47.962;7.952;2022-12-18T05:25:28;-3269.40;73.70
7447;DHT22;3765;47.962;7.952;2022-12-18T05:27:57;-3269.50;74.00
7447;DHT22;3765;47.962;7.952;2022-12-18T05:30:26;-3269.60;73.90
7447;DHT22;3765;47.962;7.952;2022-12-18T05:32:55;-3269.70;73.90
7447;DHT22;3765;47.962;7.952;2022-12-18T05:35:23;-3269.70;73.60
7447;DHT22;3765;47.962;7.952;2022-12-18T05:37:51;-3269.60;73.70
7447;DHT22;3765;47.962;7.952;2022-12-18T05:40:21;-3269.70;73.80
7447;DHT22;3765;47.962;7.952;2022-12-18T05:42:49;-3269.70;73.80
7447;DHT22;3765;47.962;7.952;2022-12-18T05:45:17;-3269.70;73.70
7447;DHT22;3765;47.962;7.952;2022-12-18T05:47:45;-3269.70;73.90
7447;DHT22;3765;47.962;7.952;2022-12-18T05:50:13;-3269.80;74.00
7447;DHT22;3765;47.962;7.952;2022-12-18T05:52:42;-3269.80;74.00
7447;DHT22;3765;47.962;7.952;2022-12-18T05:55:10;-3269.80;73.90
7447;DHT22;3765;47.962;7.952;2022-12-18T05:57:39;-3269.80;74.00
7447;DHT22;3765;47.962;7.952;2022-12-18T06:00:09;-3269.80;73.90
7447;DHT22;3765;47.962;7.952;2022-12-18T06:02:37;-3269.80;73.90
7447;DHT22;3765;47.962;7.952;2022-12-18T06:05:06;-3269.70;73.80
7447;DHT22;3765;47.962;7.952;2022-12-18T06:07:35;-3269.80;73.80
7447;DHT22;3765;47.962;7.952;2022-12-18T06:10:04;-3269.80;73.90
7447;DHT22;3765;47.962;7.952;2022-12-18T06:12:33;-3269.70;73.80
7447;DHT22;3765;47.962;7.952;2022-12-18T06:15:03;-3269.70;73.80
7447;DHT22;3765;47.962;7.952;2022-12-18T06:17:32;-3269.80;73.80
7447;DHT22;3765;47.962;7.952;2022-12-18T06:20:01;-3269.80;73.70
7447;DHT22;3765;47.962;7.952;2022-12-18T06:22:30;-3269.80;73.70
7447;DHT22;3765;47.962;7.952;2022-12-18T06:24:58;-3269.70;73.60
7447;DHT22;3765;47.962;7.952;2022-12-18T06:27:27;-3269.70;73.80
7447;DHT22;3765;47.962;7.952;2022-12-18T06:29:55;-3269.70;73.90
7447;DHT22;3765;47.962;7.952;2022-12-18T06:32:25;-3269.80;74.00
7447;DHT22;3765;47.962;7.952;2022-12-18T06:34:53;-3269.80;73.90
7447;DHT22;3765;47.962;7.952;2022-12-18T06:37:22;-3269.80;73.80
7447;DHT22;3765;47.962;7.952;2022-12-18T06:39:52;-3269.80;73.90
7447;DHT22;3765;47.962;7.952;2022-12-18T06:42:20;-3269.80;73.90
7447;DHT22;3765;47.962;7.952;2022-12-18T06:44:49;-3269.80;73.90
7447;DHT22;3765;47.962;7.952;2022-12-18T06:47:17;-3269.80;74.00
7447;DHT22;3765;47.962;7.952;2022-12-18T06:49:46;-3269.70;73.80
7447;DHT22;3765;47.962;7.952;2022-12-18T06:52:17;-3269.60;74.00
7447;DHT22;3765;47.962;7.952;2022-12-18T06:54:45;-3269.60;73.90
7447;DHT22;3765;47.962;7.952;2022-12-18T06:57:14;-3269.70;74.00
7447;DHT22;3765;47.962;7.952;2022-12-18T06:59:42;-3269.70;73.80
7447;DHT22;3765;47.962;7.952;2022-12-18T07:02:11;-3269.70;74.00
7447;DHT22;3765;47.962;7.952;2022-12-18T07:04:39;-3269.70;74.00
7447;DHT22;3765;47.962;7.952;2022-12-18T07:07:09;-3269.80;74.00
7447;DHT22;3765;47.962;7.952;2022-12-18T07:09:37;-3269.90;74.00
7447;DHT22;3765;47.962;7.952;2022-12-18T07:12:05;-3269.90;73.90
7447;DHT22;3765;47.962;7.952;2022-12-18T07:14:34;-3269.90;74.00
7447;DHT22;3765;47.962;7.952;2022-12-18T07:17:02;-3270.00;74.00
7447;DHT22;3765;47.962;7.952;2022-12-18T07:19:32;-3270.00;74.00
7447;DHT22;3765;47.962;7.952;2022-12-18T07:22:00;-3270.00;73.90
7447;DHT22;3765;47.962;7.952;2022-12-18T07:24:32;-3270.00;73.90
7447;DHT22;3765;47.962;7.952;2022-12-18T07:27:01;-3270.00;73.90
7447;DHT22;3765;47.962;7.952;2022-12-18T07:29:30;-3270.00;73.80
7447;DHT22;3765;47.962;7.952;2022-12-18T07:31:58;-3270.00;73.80
7447;DHT22;3765;47.962;7.952;2022-12-18T07:34:27;-3270.00;73.90
7447;DHT22;3765;47.962;7.952;2022-12-18T07:36:55;-3270.00;73.80
7447;DHT22;3765;47.962;7.952;2022-12-18T07:39:23;-3270.10;74.00
7447;DHT22;3765;47.962;7.952;2022-12-18T07:41:52;-3270.20;73.90
7447;DHT22;3765;47.962;7.952;2022-12-18T07:44:35;-3270.20;73.90
7447;DHT22;3765;47.962;7.952;2022-12-18T07:47:03;-3270.10;73.80
7447;DHT22;3765;47.962;7.952;2022-12-18T07:49:38;-3270.20;73.80
7447;DHT22;3765;47.962;7.952;2022-12-18T07:52:07;-3270.20;73.80
7447;DHT22;3765;47.962;7.952;2022-12-18T07:54:36;-3270.30;73.80
7447;DHT22;3765;47.962;7.952;2022-12-18T07:57:05;-3270.30;73.60
7447;DHT22;3765;47.962;7.952;2022-12-18T07:59:53;-3270.20;73.50
7447;DHT22;3765;47.962;7.952;2022-12-18T08:02:22;-3270.20;73.70
7447;DHT22;3765;47.962;7.952;2022-12-18T08:04:50;-3270.20;73.80
7447;DHT22;3765;47.962;7.952;2022-12-18T08:07:18;-3270.30;73.90
7447;DHT22;3765;47.962;7.952;2022-12-18T08:09:46;-3270.30;73.80
7447;DHT22;3765;47.962;7.952;2022-12-18T08:12:16;-3270.30;73.80
7447;DHT22;3765;47.962;7.952;2022-12-18T08:14:44;-3270.40;73.90
7447;DHT22;3765;47.962;7.952;2022-12-18T08:17:12;-3270.50;73.90
7447;DHT22;3765;47.962;7.952;2022-12-18T08:19:40;-3270.40;73.70
7447;DHT22;3765;47.962;7.952;2022-12-18T08:22:08;-3270.40;73.80
7447;DHT22;3765;47.962;7.952;2022-12-18T08:24:37;-3270.50;73.90
7447;DHT22;3765;47.962;7.952;2022-12-18T08:27:05;-3270.60;74.10
7447;DHT22;3765;47.962;7.952;2022-12-18T08:29:54;-3270.80;74.20
7447;DHT22;3765;47.962;7.952;2022-12-18T08:32:23;-3270.90;74.00
7447;DHT22;3765;47.962;7.952;2022-12-18T08:34:51;-3271.10;74.10
7447;DHT22;3765;47.962;7.952;2022-12-18T08:37:19;-3271.20;74.00
7447;DHT22;3765;47.962;7.952;2022-12-18T08:39:48;-3271.30;73.90
7447;DHT22;3765;47.962;7.952;2022-12-18T08:42:16;-3271.40;74.00
7447;DHT22;3765;47.962;7.952;2022-12-18T08:45:03;-3271.50;74.00
7447;DHT22;3765;47.962;7.952;2022-12-18T08:47:31;-3271.60;73.90
7447;DHT22;3765;47.962;7.952;2022-12-18T08:50:00;-3271.70;73.80
7447;DHT22;3765;47.962;7.952;2022-12-18T08:52:28;-3271.80;73.90
7447;DHT22;3765;47.962;7.952;2022-12-18T08:54:56;-3272.00;74.00
7447;DHT22;3765;47.962;7.952;2022-12-18T08:57:24;-3272.20;74.00
7447;DHT22;3765;47.962;7.952;2022-12-18T08:59:52;-3272.40;73.90
7447;DHT22;3765;47.962;7.952;2022-12-18T09:02:22;-3272.30;73.60
7447;DHT22;3765;47.962;7.952;2022-12-18T09:04:51;-3272.40;74.00
7447;DHT22;3765;47.962;7.952;2022-12-18T09:07:23;-3272.60;74.00
7447;DHT22;3765;47.962;7.952;2022-12-18T09:09:51;-3272.70;74.00
7447;DHT22;3765;47.962;7.952;2022-12-18T09:12:19;-3272.90;74.00
7447;DHT22;3765;47.962;7.952;2022-12-18T09:14:50;-3273.00;74.00
7447;DHT22;3765;47.962;7.952;2022-12-18T09:17:18;-3273.10;73.80
7447;DHT22;3765;47.962;7.952;2022-12-18T09:19:48;-3273.20;74.10
7447;DHT22;3765;47.962;7.952;2022-12-18T09:22:16;-3273.30;74.10
7447;DHT22;3765;47.962;7.952;2022-12-18T09:24:45;-3273.50;74.20
7447;DHT22;3765;47.962;7.952;2022-12-18T09:27:13;-3273.70;74.10
7447;DHT22;3765;47.962;7.952;2022-12-18T09:29:41;-3273.70;74.10
7447;DHT22;3765;47.962;7.952;2022-12-18T09:32:09;-3273.80;74.20
7447;DHT22;3765;47.962;7.952;2022-12-18T09:34:37;-3273.90;74.10
7447;DHT22;3765;47.962;7.952;2022-12-18T09:37:07;-3274.00;74.10
7447;DHT22;3765;47.962;7.952;2022-12-18T09:39:36;-3274.00;74.10
7447;DHT22;3765;47.962;7.952;2022-12-18T09:42:04;-3274.10;74.20
7447;DHT22;3765;47.962;7.952;2022-12-18T09:44:37;-3274.20;74.10
7447;DHT22;3765;47.962;7.952;2022-12-18T09:47:14;-3274.30;74.20
7447;DHT22;3765;47.962;7.952;2022-12-18T09:49:47;-3274.30;74.20
7447;DHT22;3765;47.962;7.952;2022-12-18T09:52:21;-3274.40;74.20
7447;DHT22;3765;47.962;7.952;2022-12-18T09:54:55;-3274.40;74.20
7447;DHT22;3765;47.962;7.952;2022-12-18T09:57:25;-3274.50;74.30
7447;DHT22;3765;47.962;7.952;2022-12-18T09:59:56;-3274.70;74.20
7447;DHT22;3765;47.962;7.952;2022-12-18T10:02:30;-3274.70;73.90
7447;DHT22;3765;47.962;7.952;2022-12-18T10:05:06;-3274.70;74.10
7447;DHT22;3765;47.962;7.952;2022-12-18T10:07:43;-3274.80;74.10
7447;DHT22;3765;47.962;7.952;2022-12-18T10:10:26;-3275.00;74.20
7447;DHT22;3765;47.962;7.952;2022-12-18T10:13:02;-3275.10;74.10
7447;DHT22;3765;47.962;7.952;2022-12-18T10:15:38;-3275.20;74.10
7447;DHT22;3765;47.962;7.952;2022-12-18T10:18:19;-3275.30;74.00
7447;DHT22;3765;47.962;7.952;2022-12-18T10:20:50;-3275.40;74.00
7447;DHT22;3765;47.962;7.952;2022-12-18T10:23:26;-3275.40;73.90
7447;DHT22;3765;47.962;7.952;2022-12-18T10:26:02;-3275.50;73.90
7447;DHT22;3765;47.962;7.952;2022-12-18T10:28:31;-3275.70;74.00
7447;DHT22;3765;47.962;7.952;2022-12-18T10:30:59;-3275.70;73.80
7447;DHT22;3765;47.962;7.952;2022-12-18T10:33:29;-3275.80;74.00
7447;DHT22;3765;47.962;7.952;2022-12-18T10:35:59;-3275.90;74.10
7447;DHT22;3765;47.962;7.952;2022-12-18T10:38:30;-3275.90;73.90
7447;DHT22;3765;47.962;7.952;2022-12-18T10:41:01;-3275.90;74.10
7447;DHT22;3765;47.962;7.952;2022-12-18T10:43:31;-3275.90;74.30
7447;DHT22;3765;47.962;7.952;2022-12-18T10:46:12;-3276.00;74.10
7447;DHT22;3765;47.962;7.952;2022-12-18T10:48:51;-3276.10;74.30
7447;DHT22;3765;47.962;7.952;2022-12-18T10:51:22;-3276.20;74.20
7447;DHT22;3765;47.962;7.952;2022-12-18T10:53:57;-3276.20;74.00
7447;DHT22;3765;47.962;7.952;2022-12-18T10:56:30;-3276.30;74.30
7447;DHT22;3765;47.962;7.952;2022-12-18T10:59:01;-3276.40;74.40
7447;DHT22;3765;47.962;7.952;2022-12-18T11:01:46;-3276.50;74.40
7447;DHT22;3765;47.962;7.952;2022-12-18T11:04:18;-3276.70;74.40
7447;DHT22;3765;47.962;7.952;2022-12-18T11:06:56;-3276.70;74.40
7447;DHT22;3765;47.962;7.952;2022-12-18T11:09:27;0.00;74.50
7447;DHT22;3765;47.962;7.952;2022-12-18T11:11:57;0.20;74.20
7447;DHT22;3765;47.962;7.952;2022-12-18T11:14:29;0.30;74.10
7447;DHT22;3765;47.962;7.952;2022-12-18T11:16:59;0.30;74.30
7447;DHT22;3765;47.962;7.952;2022-12-18T11:19:53;0.40;74.00
7447;DHT22;3765;47.962;7.952;2022-12-18T11:22:24;0.40;74.00
7447;DHT22;3765;47.962;7.952;2022-12-18T11:24:57;0.30;74.30
7447;DHT22;3765;47.962;7.952;2022-12-18T11:27:51;0.50;74.30
7447;DHT22;3765;47.962;7.952;2022-12-18T11:30:23;0.70;74.20
7447;DHT22;3765;47.962;7.952;2022-12-18T11:32:56;0.80;74.10
7447;DHT22;3765;47.962;7.952;2022-12-18T11:35:32;0.90;74.00
7447;DHT22;3765;47.962;7.952;2022-12-18T11:38:10;1.10;73.90
7447;DHT22;3765;47.962;7.952;2022-12-18T11:40:44;1.20;73.80
7447;DHT22;3765;47.962;7.952;2022-12-18T11:43:15;1.30;73.80
7447;DHT22;3765;47.962;7.952;2022-12-18T11:45:51;1.30;73.90
7447;DHT22;3765;47.962;7.952;2022-12-18T11:48:23;1.40;73.90
7447;DHT22;3765;47.962;7.952;2022-12-18T11:50:55;1.40;73.80
7447;DHT22;3765;47.962;7.952;2022-12-18T11:53:25;1.40;74.10
7447;DHT22;3765;47.962;7.952;2022-12-18T11:56:03;1.40;73.90
7447;DHT22;3765;47.962;7.952;2022-12-18T11:58:45;1.50;74.20
7447;DHT22;3765;47.962;7.952;2022-12-18T12:01:28;1.70;74.10
7447;DHT22;3765;47.962;7.952;2022-12-18T12:04:15;1.80;73.70
7447;DHT22;3765;47.962;7.952;2022-12-18T12:06:51;1.80;73.70
7447;DHT22;3765;47.962;7.952;2022-12-18T12:09:34;1.60;73.60
7447;DHT22;3765;47.962;7.952;2022-12-18T12:12:23;1.10;73.20
7447;DHT22;3765;47.962;7.952;2022-12-18T12:15:00;1.00;74.00
7447;DHT22;3765;47.962;7.952;2022-12-18T12:17:36;1.00;74.00
7447;DHT22;3765;47.962;7.952;2022-12-18T12:20:10;0.80;73.90
7447;DHT22;3765;47.962;7.952;2022-12-18T12:22:47;0.70;74.20
7447;DHT22;3765;47.962;7.952;2022-12-18T12:25:30;0.40;74.10
7447;DHT22;3765;47.962;7.952;2022-12-18T12:28:13;0.50;74.50
7447;DHT22;3765;47.962;7.952;2022-12-18T12:30:52;0.50;74.40
7447;DHT22;3765;47.962;7.952;2022-12-18T12:33:31;0.60;74.70
7447;DHT22;3765;47.962;7.952;2022-12-18T12:36:09;0.70;74.60
7447;DHT22;3765;47.962;7.952;2022-12-18T12:38:44;0.80;74.80
7447;DHT22;3765;47.962;7.952;2022-12-18T12:41:20;0.80;74.70
7447;DHT22;3765;47.962;7.952;2022-12-18T12:44:14;0.60;74.50
7447;DHT22;3765;47.962;7.952;2022-12-18T12:46:43;0.30;74.60
7447;DHT22;3765;47.962;7.952;2022-12-18T12:49:15;0.30;75.00
7447;DHT22;3765;47.962;7.952;2022-12-18T12:51:49;0.30;74.90
7447;DHT22;3765;47.962;7.952;2022-12-18T12:54:23;0.40;75.20
7447;DHT22;3765;47.962;7.952;2022-12-18T12:56:56;0.60;75.30
7447;DHT22;3765;47.962;7.952;2022-12-18T12:59:35;1.00;75.10
7447;DHT22;3765;47.962;7.952;2022-12-18T13:02:13;1.20;74.80
7447;DHT22;3765;47.962;7.952;2022-12-18T13:04:48;1.30;74.70
7447;DHT22;3765;47.962;7.952;2022-12-18T13:07:20;1.10;74.40
7447;DHT22;3765;47.962;7.952;2022-12-18T13:10:11;1.00;74.90
7447;DHT22;3765;47.962;7.952;2022-12-18T13:12:55;1.20;75.00
7447;DHT22;3765;47.962;7.952;2022-12-18T13:15:30;1.40;74.80
7447;DHT22;3765;47.962;7.952;2022-12-18T13:18:09;1.40;74.60
7447;DHT22;3765;47.962;7.952;2022-12-18T13:20:39;1.30;74.70
7447;DHT22;3765;47.962;7.952;2022-12-18T13:23:34;1.30;74.80
7447;DHT22;3765;47.962;7.952;2022-12-18T13:26:29;1.10;74.70
7447;DHT22;3765;47.962;7.952;2022-12-18T13:28:59;1.30;75.10
7447;DHT22;3765;47.962;7.952;2022-12-18T13:34:41;1.60;74.80
7447;DHT22;3765;47.962;7.952;2022-12-18T13:37:42;1.60;74.80
7447;DHT22;3765;47.962;7.952;2022-12-18T13:43:34;1.90;74.50
7447;DHT22;3765;47.962;7.952;2022-12-18T13:46:17;1.90;74.10
7447;DHT22;3765;47.962;7.952;2022-12-18T13:48:57;1.80;73.90
7447;DHT22;3765;47.962;7.952;2022-12-18T13:51:29;1.40;73.80
7447;DHT22;3765;47.962;7.952;2022-12-18T13:54:01;0.90;74.10
7447;DHT22;3765;47.962;7.952;2022-12-18T13:56:32;0.80;74.60
7447;DHT22;3765;47.962;7.952;2022-12-18T13:59:11;0.80;74.80
7447;DHT22;3765;47.962;7.952;2022-12-18T14:01:45;0.90;74.90
7447;DHT22;3765;47.962;7.952;2022-12-18T14:04:20;1.00;75.00
7447;DHT22;3765;47.962;7.952;2022-12-18T14:06:53;0.90;74.90
7447;DHT22;3765;47.962;7.952;2022-12-18T14:09:26;1.00;75.00
7447;DHT22;3765;47.962;7.952;2022-12-18T14:11:56;0.90;74.90
7447;DHT22;3765;47.962;7.952;2022-12-18T14:14:42;0.90;74.90
7447;DHT22;3765;47.962;7.952;2022-12-18T14:17:12;0.80;74.80
7447;DHT22;3765;47.962;7.952;2022-12-18T14:19:43;0.80;75.30
7447;DHT22;3765;47.962;7.952;2022-12-18T14:22:17;0.80;75.20
7447;DHT22;3765;47.962;7.952;2022-12-18T14:24:46;0.70;75.30
7447;DHT22;3765;47.962;7.952;2022-12-18T14:27:22;0.60;75.30
7447;DHT22;3765;47.962;7.952;2022-12-18T14:29:51;0.30;75.20
7447;DHT22;3765;47.962;7.952;2022-12-18T14:32:20;0.20;75.70
7447;DHT22;3765;47.962;7.952;2022-12-18T14:34:50;0.30;75.70
7447;DHT22;3765;47.962;7.952;2022-12-18T14:37:23;0.30;75.70
7447;DHT22;3765;47.962;7.952;2022-12-18T14:39:53;0.20;75.70
7447;DHT22;3765;47.962;7.952;2022-12-18T14:42:22;0.10;75.50
7447;DHT22;3765;47.962;7.952;2022-12-18T14:45:32;0.10;75.80
7447;DHT22;3765;47.962;7.952;2022-12-18T14:48:11;0.00;75.80
7447;DHT22;3765;47.962;7.952;2022-12-18T14:50:58;0.00;76.00
7447;DHT22;3765;47.962;7.952;2022-12-18T14:53:39;0.00;76.00
7447;DHT22;3765;47.962;7.952;2022-12-18T14:56:20;-3276.60;76.00
7447;DHT22;3765;47.962;7.952;2022-12-18T14:58:50;-3276.70;76.40
7447;DHT22;3765;47.962;7.952;2022-12-18T15:01:21;-3276.70;76.20
7447;DHT22;3765;47.962;7.952;2022-12-18T15:03:52;-3276.70;76.30
7447;DHT22;3765;47.962;7.952;2022-12-18T15:06:29;-3276.70;76.20
7447;DHT22;3765;47.962;7.952;2022-12-18T15:09:01;-3276.50;75.90
7447;DHT22;3765;47.962;7.952;2022-12-18T15:11:35;-3276.40;76.30
7447;DHT22;3765;47.962;7.952;2022-12-18T15:17:16;-3276.30;76.60
7447;DHT22;3765;47.962;7.952;2022-12-18T15:19:46;-3276.30;76.50
7447;DHT22;3765;47.962;7.952;2022-12-18T15:22:21;-3276.30;76.70
7447;DHT22;3765;47.962;7.952;2022-12-18T15:24:52;-3276.30;76.70
7447;DHT22;3765;47.962;7.952;2022-12-18T15:27:25;-3276.20;76.50
7447;DHT22;3765;47.962;7.952;2022-12-18T15:30:16;-3276.20;76.80
7447;DHT22;3765;47.962;7.952;2022-12-18T15:32:45;-3276.20;76.80
7447;DHT22;3765;47.962;7.952;2022-12-18T15:35:19;-3276.20;76.80
7447;DHT22;3765;47.962;7.952;2022-12-18T15:37:47;-3276.30;76.90
7447;DHT22;3765;47.962;7.952;2022-12-18T15:40:19;-3276.20;76.70
7447;DHT22;3765;47.962;7.952;2022-12-18T15:42:50;-3276.20;77.00
7447;DHT22;3765;47.962;7.952;2022-12-18T15:45:37;-3276.20;76.90
7447;DHT22;3765;47.962;7.952;2022-12-18T15:48:15;-3276.30;77.00
7447;DHT22;3765;47.962;7.952;2022-12-18T15:50:45;-3276.30;76.60
7447;DHT22;3765;47.962;7.952;2022-12-18T15:53:13;-3276.30;77.00
7447;DHT22;3765;47.962;7.952;2022-12-18T15:55:43;-3276.40;77.00
7447;DHT22;3765;47.962;7.952;2022-12-18T15:58:28;-3276.50;76.80
7447;DHT22;3765;47.962;7.952;2022-12-18T16:00:58;-3276.50;76.80
7447;DHT22;3765;47.962;7.952;2022-12-18T16:03:27;-3276.60;76.70
7447;DHT22;3765;47.962;7.952;2022-12-18T16:05:55;-3276.60;76.70
7447;DHT22;3765;47.962;7.952;2022-12-18T16:08:25;-3276.50;76.60
7447;DHT22;3765;47.962;7.952;2022-12-18T16:10:55;-3276.50;76.60